Aérodrome :
LOGIN :

S'inscrire | Disclaimer

   EN    FR    IT 

 










Légende :    VFR   VFR Marginal   IFR   IFR Intensif   IFR Très Intensif
Visi : 
Plafond : 
>= 8 km
>= 3000ft
5 à 8 km
1000 à 3000 ft
1500m à 5 km
500 à 1000 ft
800 à 1500m
200 à 500 ft
< 800m
< 200 ft
Symboles :   Orages  Brouillard  Fortes neiges  Fortes précipitations  Vent > 20 kt
SIGMETs :   Divers  Orages  Givrage  Turbulence  Onde Orograph.  Cendres Volcan.







- Altitude de l'aérodrome : 433 ft
- Code IATA : CCF
- Voir les cartes d'approche


LFMK - Carcassonne

DERNIER METAR :
  • 192000Z AUTO 29009KT 250V310 9999 OVC056 17/09 Q1023

METARs EXPIRÉS :
  • 191930Z AUTO 30008KT 9999 BKN052 17/08 Q1023
  • 191900Z AUTO 31007KT 280V340 9999 BKN054 BKN082 17/08 Q1023
  • 191830Z AUTO 32005KT 280V340 9999 SCT058 BKN074 BKN090 16/08 Q1022
  • 191800Z AUTO 31006KT 280V340 9999 SCT062 SCT072 BKN088 17/07 Q1022 NOSIG
  • 191730Z AUTO 31009KT 9999 FEW078 18/07 Q1022 NOSIG

TAF TAF LFMK
Valide du 19 à 15h jusqu'au 20 à 15h UTC


191400Z 1915/2015 29020KT 9999 SCT045 BKN070
BECMG 1918/1921 27008KT
BECMG 2001/2003 CAVOK
Pas de NOTAMs connus pour ce terrain.



MET'MAP, la Météo Aéronautique d'un coup d'oeil ! - Copyright ORBIFLY Décembre 2007 - Disclaimer

ORBIFLY MET'MAP TEAM :

Programmation & Développement : Alexandra Zaïnal
Conception & Développement : Baudouin d'Aumeries
Co-Programmation & Développement : Marc-Olivier Méhu
Soutien technique & logistique : Manuel Goepfert

Contact : metmap@orbifly.com




SOURCES & CREDITS :

   NOAA